Timeline UpdatesTrip UpdatesNews PostsPvt Posts♥♥Travel TipsAdmin PostsConv PostsFollowed PostsChat RequestsBlog PostsPNR Posts

Disclaimer
Search
 
 
Thu Oct 23, 2014 14:14:55 ISTHomeTrainsΣChainsAtlasPNRForumGalleryNewsFAQTripsMembersLoginFeedback
No Recent News for this Train
Other Trains in the News **new
Latest...
Monsoon TT Updated W.e.f. 1st July to 30th Sept. 2014
Mon Jun 30, 2014 (04:42PM)
⇐ Return Journey: Train# 16335

16336/Nagercoil - Gandhidham Express

Time-Table HAS CHANGED.
Sep 12 2014 (9:38PM)
Change Departure Station:
Change Arrival Station:
Post a Train Travel TipPost a Train Travel Tip **new
Post a Comment/Question/Picture/VideoPost a Comment/Question/Picture/Video
Pantry/Catering
✓ Pantry Car Avbl
✓ Catering Avbl
RSA - Rake Sharing
06309/06310/16335/16336 has RSA.
Rake/Coach Composition
LOCO-SLR-LD-GEN-S1-S2-S3-S4-S5-S6-PC-S7-S8-SS9-S10-S11-S12-A1-B2-B1-GEN-GEN-SLR; Coach position at Ahmedabad.
Loco
NCJ to SRR RPM/ED WAP4 SRR to GIMB ERS WDM3A
News    PNR    Forum    Time-Table    Availability    Fare Chart    Map    Arr/Dep History    Trips    Gallery    ΣChains    X/O    Timeline    
Travel Time: 6h 22m    6 halts    Distance: 303 km    Avg Speed: 47 km/hr
Type: Mail/Express
Zone: SR/Southern
Departs @ 06:58 (Avg 9h 26m late)
Platform# 1
    T  
Maninagar/MAN 
Arrives @ 13:20 (Avg 1h 57m late)
Platform# 3
    T  
Gandhidham Junction/GIMB 

6 halts. 38 intermediate Stations between Maninagar and Gandhidham Junction

Show ALL intermediate Stations  Show Old Time-Table

#TrkCodeStation NameX/OArrivesAvgDepartsAvgHaltPFDay#KmSpeedElevZoneAddress
1/--/NCJNagercoil Junction (4)  -14:00+1211-2042.05022mSRNagercoil-629002, Tamil Nadu
2/--/TVCTrivandrum Central (5)  15:30 15:25+615:35+65 10m--1-1971.07812mSRThiruvananthapuram 695001, Kerala
3/==/QLNKollam Junction (6)X  16:25+2216:30+215m21-1906.46116mSRKollam 0474-2746194, Kerala
4/==/KYJKayamkulam Junction (5)X  17:08 17:10+1517:10 17:12+152m--1-1865.66111mSRAlappuzha Ph;0479-2442042, Kerala
5/==%CNGRChengannur (3)  17:30 17:32+1417:32 17:34+172m31-1845.3606mSRPh: 0479-2452340, Kerala
6%==%TRVLTiruvalla (2)  17:40 17:43+2017:42 17:44+222 1m21-1836.34327mSRPh: 0469-2601314, Kerala
7%==%KTYMKottayam (3)X  18:20+2618:25+315m11-1810.63815mSRTel: 0481 2563535, Kerala
8/==/ERNErnakulam Town (North) (2)X  20:00+2620:05+265m11-1750.6569mSRTel: 0484 2395198, Kerala
9/==/AWYAluva (3)  20:23+2520:25+262m31-1733.86112mSRPh: 0484-2624141, Kerala
10/==/TCRThrissur (4)  21:19+3121:22+313m21-1679.2346mSRThrissur Tel: 0487 2423150, Kerala
11/==/SRRShoranur Junction (7)  22:20+1522:30+2610m--1-1646.25026mSRShoranur ph.no 0466-2222913, Kerala
12%==%PTBPattambi (2)  22:43 22:44+3022:45+302 1m--1-1634.75821mSRPattambi, Kerala
13%==%KTUKuttippuram (2)X  23:03 23:04+3223:05+322 1m--1-1616.25017mSRKuttippuram, Kerala
14%==%TIRTirur (3)  23:23+2923:25+292m--1-1601.1699mSRTel: 0494 2422240, Kerala
15%==%PGIParappangadi (2)X  23:38 23:39+3123:40+312 1m--1-1585.16519mSRParappanangadi, Kerala
16%==%FKFerok (2)  23:53 23:54+3023:55+302 1m--1-1569.92419mSRFeroke, Kerala
17%==%CLTKozhikode Main (4)  00:20+2300:25+235m42-1559.96111mSRCalicut Tel: 0495 2701234, Kerala
18%==%QLDKoyilandy (3)  00:48 00:49+2600:50+262 1m--2-1535.67711mSRQuilandi, Kerala
19%==%BDJVadakara (2)  01:07+2701:09+262m22-1513.67011mSRCalicut / Station Ph No : 0496-2524254, Kerala
20%==%TLYThalassery (2)  01:28+2901:30+292m--2-1491.5419mSRKannur, Kerala
21%==%CANKannur Main (4)  02:00+2302:05+275m12-1470.96714mSRKannur Tel: 0497 2705555, Kerala
22%==%KPQKannapuram (2)  02:18+2902:20+282m12-1456.4649mSRKannur District, Kerala
23%==%PAYPayyanur (3)  02:38+2202:40+222m--2-1437.2540mSRKannur District, Kerala
24%==%KGQKasaragod (3)  03:38+1403:40+142m--2-1384.84218mSRTel: 04994 220800, Kerala
25%==%MAJNMangalore Junction (3)X  04:50-105:00+410m32-1335.73124mSRMangalore 575001, Karnataka
26|--|SLSurathkal (1)  05:40+605:42+112m12-1315.27022mKRSurathkal, Karnataka
27|--|UDUdupi (2)  06:18+1406:20+272m--2-1273.48018mKRUdupi, Karnataka
28|--|KUDAKundapura (2)X  06:44+3106:46+322m12-1241.35313mKRKundapura - 576211, Karnataka
29|--|BYNRByndoor Mookambika Road (1)X  07:24-07:26-2m12-1207.84510mKRUdupi Dist. 576214, Karnataka
30|--|MRDWMurdeshwar (2)  08:06+1:3708:08+1:392m--2-1177.96328mKRMurudeshwara - 581350, Karnataka
31|--|KTKumta (2)X  08:46+5008:48+522m--2-1137.94520mKRKumta - 581362, Karnataka
32|--|KAWRKarwar (2)  10:02+1:3610:04+1:392m--2-1082.84514mKRKarwar, Karnataka
33|--|CNOCanacona (1)  10:40+1:2710:42+1:272m12-1055.64329mKRPh:-0832-2643644., Goa
34|--|MAOMadgaon Junction (3)  11:30+1:2211:40+1:2410m22-1021.45011mKRMadgaon 403601, Goa
35|--|SWVSawantwadi Road (2)X  13:10+1:4913:12+2:122m12-947.16540mKRDist. Sindhudurg, Maharashtra
36|--|RNRatnagiri (3)X  15:40+2:0215:45+2:085m22-786.659129mKRRatnagiri 415612, Maharashtra
37|--|CHIChiplun (2)X  17:02+1:1917:04+1:402m12-711.24812mKRChiplun, Maharashtra
38|==|PNVLPanvel Junction (7)  21:20+1:3021:25+1:385m72-507.54110mCRPanvel, Maharashtra
39/==/BIRDBhiwandi Road (4)  22:23+1:4322:25+1:432m42-469.73626mCRBhiwandi, Maharashtra
40/==/BSRVasai Road (7)  23:10+1:2923:15+1:305m62-442.5607mWRVasai 401202, Maharashtra
41/==/BORBoisar (3)00:06+1:3500:08+1:362m--3-391.68417mWRBoisar Tel.no-02525-266626, Maharashtra
42/==/VAPIVapi (3)X  00:58+1:4001:00+1:442m--3-321.45627mWRVapi, Gujarat
43/==/BLValsad (3)X  01:28+1:3901:30+1:412m13-295.14115mWRValsad, Gujarat
44/==/STSurat (4)O  03:10+2:1303:22+2:1312m23-226.47519mWRSurat 395001, Gujarat
45/==/AKVAnkleshwar Junction (4)X  04:02+1:2004:04+1:202m13-176.57019mWRAnkleshwar, Gujarat
46/==/BRCVadodara Junction (7)X  05:20 05:12+1:2005:22+1:332 10m23-96.66736mWRVadodara 390005, Gujarat
47/==/ANNDAnand Junction (6)X  05:54+1:5905:56+1:592m23-60.97444mWRAnand, Gujarat
48/==/NDNadiad Junction (4)XO  06:11+206:13+22m23-42.45937mWRNadiad, Gujarat
49/==/MANManinagar (2)»  06:56+9:2606:58+9:262m130.01150mWRAhmadabad, Gujarat
50/==/ADIAhmedabad Junction (12)  07:15+2:3407:35+2:3020m133.26351mWRAhmedabad, Gujarat
51|==|VGViramgam Junction (5)  08:37+2:5808:39+2:582m1368.65529mWRViramgam, Gujarat
52!==!DHGDhrangadhra Junction (3)  09:50+2:0309:52+2:032m--3133.37454mWRDhrangadhra, Gujarat
53!==!MALBMaliya Miyana Junction (2)  10:54+2:1310:56+2:152m--3210.1496mWRMalia, Gujarat
54!==!SIOBSamakhiali Junction (3)  11:44+2:0811:46+2:082m13249.36042mWRSamakhiali, Gujarat
55|==|BCOBBhachau (3)  12:02+2:0712:04+2:062m13265.33044mWRBhachau, Gujarat
56|==|GIMBGandhidham Junction (3)•  13:20+1:57-33303.1-12mWRGandhidham, Gujarat
Scroll to Top
Scroll to Bottom